PWSweather.com
Personal Weather Stations
Station Observations
GRD01
Warsaw, LesznoPL 05-084

WarsawLesznoPL 05-084

Lat: 52.257404, Lon: 20.564847

Elevation: 298

Station Type: WH3080

http://pogoda.kampinos.waw.pl

High Low Average
Temperature 59.7°F15.4°C 42.6°F5.9°C 48.1°F8.9°C
Dew Point 47.3°F8.5°C 40.1°F4.5°C 43.2°F6.2°C
Winds 13.0 mph 20.9 kmh Calm Calm 3.0 mph WSW4.8 kmh WSW
Wind Gusts 22.8 mph36.7 kmh 1.6 mph2.6 kmh 7.0 mph11.3 kmh
Humidity 95% 60% 84%
Pressure 30.71 in1040.0 mb 30.54 in1034.2 mb -
Precipitation 0.18 in4.6 mm - -
Hour Temp Dew Point Humidity Winds Wind Gusts Pressure Precip Precip Rate Daily Precip Total
12:00 AM 45.7°F7.6°C 41.1°F5.1°C 84% 1.6 mph SW2.6 kmh SW 2.2 mph3.5 kmh 30.54 in1034.2 mb 0.00 in0.0 mm 0.00 in0.0 mm 0.00 in0.0 mm
12:11 AM 45.7°F7.6°C 41.1°F5.1°C 84% 1.6 mph SW2.6 kmh SW 2.2 mph3.5 kmh 30.10 in1019.3 mb 0.00 in0.0 mm 0.00 in0.0 mm 0.00 in0.0 mm
12:15 AM 45.3°F7.4°C 42.6°F5.9°C 90% 0.7 mph S1.1 kmh S 3.1 mph5.0 kmh 30.54 in1034.2 mb 0.00 in0.0 mm 0.00 in0.0 mm 0.00 in0.0 mm
12:30 AM 44.8°F7.1°C 42.0°F5.6°C 90% Calm Calm 1.6 mph2.6 kmh 30.54 in1034.2 mb 0.00 in0.0 mm 0.00 in0.0 mm 0.00 in0.0 mm
12:41 AM 44.8°F7.1°C 42.0°F5.6°C 90% Calm Calm 0.7 mph1.1 kmh 30.10 in1019.3 mb 0.00 in0.0 mm 0.00 in0.0 mm 0.00 in0.0 mm
12:45 AM 44.4°F6.9°C 41.7°F5.4°C 90% Calm Calm 2.2 mph3.5 kmh 30.54 in1034.2 mb 0.00 in0.0 mm 0.00 in0.0 mm 0.00 in0.0 mm
01:00 AM 44.2°F6.8°C 41.5°F5.3°C 90% 1.6 mph S2.6 kmh S 2.2 mph3.5 kmh 30.54 in1034.2 mb 0.00 in0.0 mm 0.00 in0.0 mm 0.00 in0.0 mm
01:11 AM 44.2°F6.8°C 41.5°F5.3°C 90% 1.6 mph S2.6 kmh S 2.2 mph3.5 kmh 30.10 in1019.3 mb 0.00 in0.0 mm 0.00 in0.0 mm 0.00 in0.0 mm
01:15 AM 44.2°F6.8°C 41.8°F5.4°C 91% Calm Calm 2.2 mph3.5 kmh 30.54 in1034.2 mb 0.00 in0.0 mm 0.00 in0.0 mm 0.00 in0.0 mm
01:30 AM 44.1°F6.7°C 41.6°F5.3°C 91% 0.7 mph S1.1 kmh S 3.1 mph5.0 kmh 30.55 in1034.5 mb 0.00 in0.0 mm 0.00 in0.0 mm 0.00 in0.0 mm
01:41 AM 44.1°F6.7°C 41.6°F5.3°C 91% 2.2 mph S3.5 kmh S 3.8 mph6.1 kmh 30.10 in1019.3 mb 0.00 in0.0 mm 0.00 in0.0 mm 0.00 in0.0 mm
01:45 AM 44.2°F6.8°C 42.1°F5.6°C 92% Calm Calm 2.2 mph3.5 kmh 30.55 in1034.5 mb 0.00 in0.0 mm 0.00 in0.0 mm 0.00 in0.0 mm
02:00 AM 44.1°F6.7°C 41.9°F5.5°C 92% 0.7 mph S1.1 kmh S 2.2 mph3.5 kmh 30.55 in1034.5 mb 0.00 in0.0 mm 0.00 in0.0 mm 0.00 in0.0 mm
02:11 AM 43.9°F6.6°C 41.7°F5.4°C 92% 0.7 mph S1.1 kmh S 1.6 mph2.6 kmh 30.11 in1019.6 mb 0.00 in0.0 mm 0.00 in0.0 mm 0.00 in0.0 mm
02:15 AM 43.7°F6.5°C 41.5°F5.3°C 92% Calm Calm 2.2 mph3.5 kmh 30.55 in1034.5 mb 0.00 in0.0 mm 0.00 in0.0 mm 0.00 in0.0 mm
02:30 AM 43.7°F6.5°C 41.5°F5.3°C 92% 1.6 mph S2.6 kmh S 2.2 mph3.5 kmh 30.56 in1034.9 mb 0.00 in0.0 mm 0.00 in0.0 mm 0.00 in0.0 mm
02:41 AM 43.9°F6.6°C 42.0°F5.6°C 93% 1.6 mph SW2.6 kmh SW 2.2 mph3.5 kmh 30.11 in1019.6 mb 0.00 in0.0 mm 0.00 in0.0 mm 0.00 in0.0 mm
02:45 AM 44.2°F6.8°C 42.3°F5.7°C 93% 0.7 mph SSW1.1 kmh SSW 3.8 mph6.1 kmh 30.55 in1034.5 mb 0.00 in0.0 mm 0.00 in0.0 mm 0.00 in0.0 mm
03:00 AM 44.8°F7.1°C 43.2°F6.2°C 94% 1.6 mph SSW2.6 kmh SSW 4.5 mph7.2 kmh 30.55 in1034.5 mb 0.00 in0.0 mm 0.00 in0.0 mm 0.00 in0.0 mm
03:11 AM 44.8°F7.1°C 43.2°F6.2°C 94% 2.2 mph W3.5 kmh W 3.8 mph6.1 kmh 30.11 in1019.6 mb 0.00 in0.0 mm 0.00 in0.0 mm 0.00 in0.0 mm
03:15 AM 45.1°F7.3°C 43.5°F6.4°C 94% 3.1 mph SW5.0 kmh SW 5.4 mph8.7 kmh 30.55 in1034.5 mb 0.00 in0.0 mm 0.00 in0.0 mm 0.00 in0.0 mm
03:30 AM 45.0°F7.2°C 43.6°F6.4°C 95% 1.6 mph WSW2.6 kmh WSW 5.4 mph8.7 kmh 30.56 in1034.9 mb 0.00 in0.0 mm 0.00 in0.0 mm 0.00 in0.0 mm
03:41 AM 45.0°F7.2°C 43.6°F6.4°C 95% 3.1 mph NW5.0 kmh NW 3.8 mph6.1 kmh 30.11 in1019.6 mb 0.00 in0.0 mm 0.00 in0.0 mm 0.00 in0.0 mm
03:45 AM 44.6°F7.0°C 43.3°F6.3°C 95% 3.1 mph W5.0 kmh W 5.4 mph8.7 kmh 30.55 in1034.5 mb 0.00 in0.0 mm 0.00 in0.0 mm 0.00 in0.0 mm
04:00 AM 44.4°F6.9°C 43.1°F6.2°C 95% 2.2 mph W3.5 kmh W 4.5 mph7.2 kmh 30.56 in1034.9 mb 0.00 in0.0 mm 0.00 in0.0 mm 0.00 in0.0 mm
04:11 AM 44.4°F6.9°C 42.8°F6.0°C 94% 2.2 mph W3.5 kmh W 3.8 mph6.1 kmh 30.11 in1019.6 mb 0.00 in0.0 mm 0.00 in0.0 mm 0.00 in0.0 mm
04:15 AM 44.2°F6.8°C 42.9°F6.1°C 95% 3.1 mph NW5.0 kmh NW 6.9 mph11.1 kmh 30.56 in1034.9 mb 0.00 in0.0 mm 0.00 in0.0 mm 0.00 in0.0 mm
04:30 AM 44.2°F6.8°C 42.6°F5.9°C 94% 3.8 mph W6.1 kmh W 6.9 mph11.1 kmh 30.56 in1034.9 mb 0.00 in0.0 mm 0.00 in0.0 mm 0.00 in0.0 mm
04:41 AM 44.1°F6.7°C 42.4°F5.8°C 94% 1.6 mph W2.6 kmh W 2.2 mph3.5 kmh 30.11 in1019.6 mb 0.00 in0.0 mm 0.00 in0.0 mm 0.00 in0.0 mm
04:45 AM 43.9°F6.6°C 42.3°F5.7°C 94% 2.2 mph WSW3.5 kmh WSW 5.4 mph8.7 kmh 30.56 in1034.9 mb 0.00 in0.0 mm 0.00 in0.0 mm 0.00 in0.0 mm
05:00 AM 43.7°F6.5°C 42.1°F5.6°C 94% 3.8 mph WNW6.1 kmh WNW 11.4 mph18.3 kmh 30.56 in1034.9 mb 0.00 in0.0 mm 0.00 in0.0 mm 0.00 in0.0 mm
05:11 AM 43.7°F6.5°C 42.1°F5.6°C 94% 3.1 mph W5.0 kmh W 4.5 mph7.2 kmh 30.12 in1020.0 mb 0.00 in0.0 mm 0.00 in0.0 mm 0.00 in0.0 mm
05:15 AM 43.5°F6.4°C 41.9°F5.5°C 94% 1.6 mph WSW2.6 kmh WSW 5.4 mph8.7 kmh 30.57 in1035.2 mb 0.00 in0.0 mm 0.00 in0.0 mm 0.00 in0.0 mm
05:30 AM 43.3°F6.3°C 41.7°F5.4°C 94% 0.7 mph W1.1 kmh W 3.8 mph6.1 kmh 30.57 in1035.2 mb 0.00 in0.0 mm 0.00 in0.0 mm 0.00 in0.0 mm
05:41 AM 43.3°F6.3°C 41.7°F5.4°C 94% 0.7 mph N1.1 kmh N 1.6 mph2.6 kmh 30.13 in1020.3 mb 0.00 in0.0 mm 0.00 in0.0 mm 0.00 in0.0 mm
05:45 AM 43.2°F6.2°C 41.6°F5.3°C 94% 1.6 mph WSW2.6 kmh WSW 5.4 mph8.7 kmh 30.57 in1035.2 mb 0.00 in0.0 mm 0.00 in0.0 mm 0.00 in0.0 mm
06:00 AM 43.7°F6.5°C 42.1°F5.6°C 94% 3.1 mph W5.0 kmh W 6.9 mph11.1 kmh 30.58 in1035.6 mb 0.00 in0.0 mm 0.00 in0.0 mm 0.00 in0.0 mm
06:11 AM 43.7°F6.5°C 42.1°F5.6°C 94% 2.2 mph SW3.5 kmh SW 3.1 mph5.0 kmh 30.14 in1020.7 mb 0.00 in0.0 mm 0.00 in0.0 mm 0.00 in0.0 mm
06:15 AM 44.6°F7.0°C 43.3°F6.3°C 95% 2.2 mph SW3.5 kmh SW 4.5 mph7.2 kmh 30.58 in1035.6 mb 0.00 in0.0 mm 0.00 in0.0 mm 0.00 in0.0 mm
06:30 AM 45.1°F7.3°C 43.8°F6.6°C 95% 3.8 mph WSW6.1 kmh WSW 8.3 mph13.4 kmh 30.58 in1035.6 mb 0.00 in0.0 mm 0.00 in0.0 mm 0.00 in0.0 mm
06:41 AM 45.3°F7.4°C 44.0°F6.7°C 95% 3.8 mph NW6.1 kmh NW 4.5 mph7.2 kmh 30.14 in1020.7 mb 0.00 in0.0 mm 0.00 in0.0 mm 0.00 in0.0 mm
06:45 AM 45.5°F7.5°C 43.0°F6.1°C 91% 4.5 mph WSW7.2 kmh WSW 9.8 mph15.8 kmh 30.59 in1035.9 mb 0.00 in0.0 mm 0.00 in0.0 mm 0.00 in0.0 mm
07:00 AM 45.9°F7.7°C 43.4°F6.3°C 91% 4.5 mph NW7.2 kmh NW 9.8 mph15.8 kmh 30.59 in1035.9 mb 0.00 in0.0 mm 0.00 in0.0 mm 0.00 in0.0 mm
07:11 AM 46.2°F7.9°C 43.7°F6.5°C 91% 4.5 mph NW7.2 kmh NW 6.0 mph9.7 kmh 30.15 in1021.0 mb 0.00 in0.0 mm 0.00 in0.0 mm 0.00 in0.0 mm
07:15 AM 46.8°F8.2°C 44.3°F6.8°C 91% 3.8 mph WSW6.1 kmh WSW 9.8 mph15.8 kmh 30.60 in1036.2 mb 0.00 in0.0 mm 0.00 in0.0 mm 0.00 in0.0 mm
07:30 AM 47.3°F8.5°C 44.5°F6.9°C 90% 4.5 mph WNW7.2 kmh WNW 9.2 mph14.8 kmh 30.60 in1036.2 mb 0.00 in0.0 mm 0.00 in0.0 mm 0.00 in0.0 mm
07:41 AM 47.3°F8.5°C 44.5°F6.9°C 90% 6.0 mph N9.7 kmh N 7.6 mph12.2 kmh 30.16 in1021.3 mb 0.00 in0.0 mm 0.00 in0.0 mm 0.00 in0.0 mm
07:45 AM 47.8°F8.8°C 45.0°F7.2°C 90% 3.8 mph WSW6.1 kmh WSW 12.1 mph19.5 kmh 30.60 in1036.2 mb 0.00 in0.0 mm 0.00 in0.0 mm 0.00 in0.0 mm
08:00 AM 48.6°F9.2°C 45.2°F7.3°C 88% 5.4 mph SSW8.7 kmh SSW 10.7 mph17.2 kmh 30.61 in1036.6 mb 0.00 in0.0 mm 0.00 in0.0 mm 0.00 in0.0 mm
08:11 AM 48.7°F9.3°C 45.0°F7.2°C 87% 8.3 mph SW13.4 kmh SW 10.7 mph17.2 kmh 30.16 in1021.3 mb 0.00 in0.0 mm 0.00 in0.0 mm 0.00 in0.0 mm
08:15 AM 49.1°F9.5°C 44.8°F7.1°C 85% 6.9 mph W11.1 kmh W 13.0 mph20.9 kmh 30.61 in1036.6 mb 0.00 in0.0 mm 0.00 in0.0 mm 0.00 in0.0 mm
08:30 AM 49.6°F9.8°C 44.7°F7.1°C 83% 6.0 mph W9.7 kmh W 10.7 mph17.2 kmh 30.61 in1036.6 mb 0.00 in0.0 mm 0.00 in0.0 mm 0.00 in0.0 mm
08:41 AM 49.6°F9.8°C 44.7°F7.1°C 83% 5.4 mph W8.7 kmh W 6.0 mph9.7 kmh 30.17 in1021.7 mb 0.00 in0.0 mm 0.00 in0.0 mm 0.00 in0.0 mm
08:45 AM 50.4°F10.2°C 44.7°F7.1°C 81% 6.9 mph WSW11.1 kmh WSW 13.0 mph20.9 kmh 30.62 in1036.9 mb 0.00 in0.0 mm 0.00 in0.0 mm 0.00 in0.0 mm
09:00 AM 51.1°F10.6°C 44.8°F7.1°C 79% 6.0 mph SW9.7 kmh SW 12.1 mph19.5 kmh 30.62 in1036.9 mb 0.00 in0.0 mm 0.00 in0.0 mm 0.00 in0.0 mm
09:11 AM 51.1°F10.6°C 44.5°F6.9°C 78% 7.6 mph SW12.2 kmh SW 9.8 mph15.8 kmh 30.18 in1022.0 mb 0.00 in0.0 mm 0.00 in0.0 mm 0.00 in0.0 mm
09:15 AM 51.6°F10.9°C 44.6°F7.0°C 77% 3.8 mph W6.1 kmh W 9.8 mph15.8 kmh 30.63 in1037.3 mb 0.00 in0.0 mm 0.00 in0.0 mm 0.00 in0.0 mm
09:30 AM 52.7°F11.5°C 45.0°F7.2°C 75% 6.9 mph SSW11.1 kmh SSW 9.2 mph14.8 kmh 30.63 in1037.3 mb 0.00 in0.0 mm 0.00 in0.0 mm 0.00 in0.0 mm
09:41 AM 52.7°F11.5°C 45.0°F7.2°C 75% 4.5 mph SW7.2 kmh SW 6.9 mph11.1 kmh 30.19 in1022.4 mb 0.00 in0.0 mm 0.00 in0.0 mm 0.00 in0.0 mm
09:45 AM 52.9°F11.6°C 44.8°F7.1°C 74% 3.1 mph SW5.0 kmh SW 9.2 mph14.8 kmh 30.63 in1037.3 mb 0.00 in0.0 mm 0.00 in0.0 mm 0.00 in0.0 mm
10:00 AM 53.6°F12.0°C 45.2°F7.3°C 73% 3.1 mph WSW5.0 kmh WSW 10.7 mph17.2 kmh 30.63 in1037.3 mb 0.00 in0.0 mm 0.00 in0.0 mm 0.00 in0.0 mm
10:11 AM 53.8°F12.1°C 45.3°F7.4°C 73% 6.0 mph S9.7 kmh S 9.8 mph15.8 kmh 30.19 in1022.4 mb 0.00 in0.0 mm 0.00 in0.0 mm 0.00 in0.0 mm
10:15 AM 55.0°F12.8°C 45.4°F7.4°C 70% 6.0 mph WSW9.7 kmh WSW 10.7 mph17.2 kmh 30.63 in1037.3 mb 0.00 in0.0 mm 0.00 in0.0 mm 0.00 in0.0 mm
10:30 AM 55.8°F13.2°C 45.4°F7.4°C 68% 2.2 mph SSW3.5 kmh SSW 9.8 mph15.8 kmh 30.64 in1037.6 mb 0.00 in0.0 mm 0.00 in0.0 mm 0.00 in0.0 mm
10:41 AM 55.8°F13.2°C 45.4°F7.4°C 68% 3.1 mph S5.0 kmh S 4.5 mph7.2 kmh 30.19 in1022.4 mb 0.00 in0.0 mm 0.00 in0.0 mm 0.00 in0.0 mm
10:45 AM 56.3°F13.5°C 44.7°F7.1°C 65% 3.8 mph WSW6.1 kmh WSW 13.6 mph21.9 kmh 30.64 in1037.6 mb 0.00 in0.0 mm 0.00 in0.0 mm 0.00 in0.0 mm
11:00 AM 55.8°F13.2°C 44.6°F7.0°C 66% 5.4 mph NW8.7 kmh NW 9.2 mph14.8 kmh 30.64 in1037.6 mb 0.00 in0.0 mm 0.00 in0.0 mm 0.00 in0.0 mm
11:11 AM 55.8°F13.2°C 44.6°F7.0°C 66% 5.4 mph NW8.7 kmh NW 7.6 mph12.2 kmh 30.20 in1022.7 mb 0.00 in0.0 mm 0.00 in0.0 mm 0.00 in0.0 mm
11:15 AM 56.3°F13.5°C 45.5°F7.5°C 67% 5.4 mph WNW8.7 kmh WNW 12.1 mph19.5 kmh 30.64 in1037.6 mb 0.00 in0.0 mm 0.00 in0.0 mm 0.00 in0.0 mm
11:30 AM 56.7°F13.7°C 44.6°F7.0°C 64% 6.0 mph W9.7 kmh W 11.4 mph18.3 kmh 30.64 in1037.6 mb 0.00 in0.0 mm 0.00 in0.0 mm 0.00 in0.0 mm
11:41 AM 56.8°F13.8°C 44.4°F6.9°C 63% 6.9 mph SW11.1 kmh SW 10.7 mph17.2 kmh 30.20 in1022.7 mb 0.00 in0.0 mm 0.00 in0.0 mm 0.00 in0.0 mm
11:45 AM 57.2°F14.0°C 44.7°F7.1°C 63% 5.4 mph SW8.7 kmh SW 11.4 mph18.3 kmh 30.64 in1037.6 mb 0.00 in0.0 mm 0.00 in0.0 mm 0.00 in0.0 mm
12:00 PM 57.7°F14.3°C 44.8°F7.1°C 62% 9.2 mph WSW14.8 kmh WSW 13.0 mph20.9 kmh 30.63 in1037.3 mb 0.00 in0.0 mm 0.00 in0.0 mm 0.00 in0.0 mm
12:11 PM 57.7°F14.3°C 44.8°F7.1°C 62% 5.4 mph SW8.7 kmh SW 6.9 mph11.1 kmh 30.19 in1022.4 mb 0.00 in0.0 mm 0.00 in0.0 mm 0.00 in0.0 mm
12:15 PM 58.1°F14.5°C 45.6°F7.6°C 63% 4.5 mph WSW7.2 kmh WSW 11.4 mph18.3 kmh 30.63 in1037.3 mb 0.00 in0.0 mm 0.00 in0.0 mm 0.00 in0.0 mm
12:30 PM 59.0°F15.0°C 46.0°F7.8°C 62% 6.9 mph WSW11.1 kmh WSW 8.3 mph13.4 kmh 30.62 in1036.9 mb 0.00 in0.0 mm 0.00 in0.0 mm 0.00 in0.0 mm
12:41 PM 59.2°F15.1°C 46.2°F7.9°C 62% 4.5 mph W7.2 kmh W 6.9 mph11.1 kmh 30.18 in1022.0 mb 0.00 in0.0 mm 0.00 in0.0 mm 0.00 in0.0 mm
12:45 PM 59.5°F15.3°C 45.6°F7.6°C 60% 5.4 mph SW8.7 kmh SW 12.1 mph19.5 kmh 30.62 in1036.9 mb 0.00 in0.0 mm 0.00 in0.0 mm 0.00 in0.0 mm
01:00 PM 59.7°F15.4°C 45.8°F7.7°C 60% 9.2 mph WNW14.8 kmh WNW 15.2 mph24.5 kmh 30.62 in1036.9 mb 0.00 in0.0 mm 0.00 in0.0 mm 0.00 in0.0 mm
01:11 PM 59.7°F15.4°C 45.8°F7.7°C 60% 7.6 mph S12.2 kmh S 11.4 mph18.3 kmh 30.18 in1022.0 mb 0.00 in0.0 mm 0.00 in0.0 mm 0.00 in0.0 mm
01:15 PM 59.2°F15.1°C 45.3°F7.4°C 60% 6.9 mph SW11.1 kmh SW 16.8 mph27.0 kmh 30.62 in1036.9 mb 0.00 in0.0 mm 0.00 in0.0 mm 0.00 in0.0 mm
01:30 PM 52.5°F11.4°C 40.7°F4.8°C 64% 13.0 mph NW20.9 kmh NW 22.8 mph36.7 kmh 30.65 in1037.9 mb 0.08 in2.0 mm 0.32 in8.1 mm 0.08 in2.0 mm
01:41 PM 51.4°F10.8°C 40.1°F4.5°C 65% 11.4 mph NW18.3 kmh NW 13.6 mph21.9 kmh 30.20 in1022.7 mb 0.11 in2.8 mm 0.16 in4.1 mm 0.11 in2.8 mm
01:45 PM 48.7°F9.3°C 40.1°F4.5°C 72% 6.0 mph NNW9.7 kmh NNW 11.4 mph18.3 kmh 30.65 in1037.9 mb 0.15 in3.8 mm 0.60 in15.2 mm 0.15 in3.8 mm
02:00 PM 48.6°F9.2°C 41.7°F5.4°C 77% 2.2 mph N3.5 kmh N 6.9 mph11.1 kmh 30.65 in1037.9 mb 0.17 in4.3 mm 0.03 in0.8 mm 0.17 in4.3 mm
02:11 PM 48.6°F9.2°C 42.0°F5.6°C 78% 1.6 mph NNW2.6 kmh NNW 2.2 mph3.5 kmh 30.21 in1023.0 mb 0.17 in4.3 mm 0.00 in0.0 mm 0.17 in4.3 mm
02:15 PM 48.9°F9.4°C 43.0°F6.1°C 80% 0.7 mph WNW1.1 kmh WNW 3.8 mph6.1 kmh 30.64 in1037.6 mb 0.18 in4.6 mm 0.15 in3.8 mm 0.18 in4.6 mm
02:30 PM 49.1°F9.5°C 43.8°F6.6°C 82% 0.7 mph W1.1 kmh W 3.8 mph6.1 kmh 30.64 in1037.6 mb 0.08 in2.0 mm 0.00 in0.0 mm 0.18 in4.6 mm
02:41 PM 49.1°F9.5°C 43.8°F6.6°C 82% Calm Calm 0.7 mph1.1 kmh 30.20 in1022.7 mb 0.07 in1.8 mm 0.00 in0.0 mm 0.18 in4.6 mm
02:45 PM 49.6°F9.8°C 44.7°F7.1°C 83% 1.6 mph SW2.6 kmh SW 3.8 mph6.1 kmh 30.65 in1037.9 mb 0.02 in0.5 mm 0.00 in0.0 mm 0.18 in4.6 mm
03:00 PM 49.8°F9.9°C 45.2°F7.3°C 84% 0.7 mph SW1.1 kmh SW 4.5 mph7.2 kmh 30.64 in1037.6 mb 0.01 in0.3 mm 0.00 in0.0 mm 0.18 in4.6 mm
03:11 PM 49.8°F9.9°C 45.2°F7.3°C 84% 0.7 mph SW1.1 kmh SW 1.6 mph2.6 kmh 30.20 in1022.7 mb 0.01 in0.3 mm 0.00 in0.0 mm 0.18 in4.6 mm
03:15 PM 50.2°F10.1°C 45.8°F7.7°C 85% 3.1 mph SSW5.0 kmh SSW 6.0 mph9.7 kmh 30.65 in1037.9 mb 0.00 in0.0 mm 0.00 in0.0 mm 0.18 in4.6 mm
03:30 PM 51.6°F10.9°C 47.3°F8.5°C 85% 3.8 mph SSW6.1 kmh SSW 5.4 mph8.7 kmh 30.64 in1037.6 mb 0.00 in0.0 mm 0.00 in0.0 mm 0.18 in4.6 mm
03:41 PM 51.8°F11.0°C 47.4°F8.6°C 85% 6.0 mph SW9.7 kmh SW 8.3 mph13.4 kmh 30.20 in1022.7 mb 0.00 in0.0 mm 0.00 in0.0 mm 0.18 in4.6 mm
03:45 PM 52.0°F11.1°C 47.0°F8.3°C 83% 3.8 mph WSW6.1 kmh WSW 6.9 mph11.1 kmh 30.65 in1037.9 mb 0.00 in0.0 mm 0.00 in0.0 mm 0.18 in4.6 mm
04:00 PM 51.8°F11.0°C 46.2°F7.9°C 81% 3.1 mph W5.0 kmh W 6.9 mph11.1 kmh 30.65 in1037.9 mb 0.00 in0.0 mm 0.00 in0.0 mm 0.18 in4.6 mm
04:11 PM 51.8°F11.0°C 46.2°F7.9°C 81% 1.6 mph W2.6 kmh W 2.2 mph3.5 kmh 30.20 in1022.7 mb 0.00 in0.0 mm 0.00 in0.0 mm 0.18 in4.6 mm
04:15 PM 51.8°F11.0°C 45.8°F7.7°C 80% 2.2 mph WSW3.5 kmh WSW 5.4 mph8.7 kmh 30.65 in1037.9 mb 0.00 in0.0 mm 0.00 in0.0 mm 0.18 in4.6 mm
04:30 PM 51.3°F10.7°C 45.3°F7.4°C 80% 3.8 mph W6.1 kmh W 5.4 mph8.7 kmh 30.66 in1038.3 mb 0.00 in0.0 mm 0.00 in0.0 mm 0.18 in4.6 mm
04:41 PM 51.1°F10.6°C 45.1°F7.3°C 80% 3.1 mph SW5.0 kmh SW 3.8 mph6.1 kmh 30.21 in1023.0 mb 0.00 in0.0 mm 0.00 in0.0 mm 0.18 in4.6 mm
04:45 PM 50.5°F10.3°C 44.6°F7.0°C 80% 5.4 mph NW8.7 kmh NW 9.8 mph15.8 kmh 30.66 in1038.3 mb 0.00 in0.0 mm 0.00 in0.0 mm 0.18 in4.6 mm
05:00 PM 50.0°F10.0°C 44.4°F6.9°C 81% 6.0 mph NW9.7 kmh NW 11.4 mph18.3 kmh 30.66 in1038.3 mb 0.00 in0.0 mm 0.00 in0.0 mm 0.18 in4.6 mm
05:11 PM 50.0°F10.0°C 44.1°F6.7°C 80% 3.1 mph NW5.0 kmh NW 5.4 mph8.7 kmh 30.22 in1023.4 mb 0.00 in0.0 mm 0.00 in0.0 mm 0.18 in4.6 mm
05:15 PM 49.5°F9.7°C 43.5°F6.4°C 80% 2.2 mph NW3.5 kmh NW 9.2 mph14.8 kmh 30.66 in1038.3 mb 0.00 in0.0 mm 0.00 in0.0 mm 0.18 in4.6 mm
05:30 PM 48.9°F9.4°C 42.7°F5.9°C 79% 6.9 mph NNW11.1 kmh NNW 14.5 mph23.3 kmh 30.68 in1038.9 mb 0.00 in0.0 mm 0.00 in0.0 mm 0.18 in4.6 mm
05:41 PM 48.7°F9.3°C 42.5°F5.8°C 79% 4.5 mph N7.2 kmh N 6.0 mph9.7 kmh 30.23 in1023.7 mb 0.00 in0.0 mm 0.00 in0.0 mm 0.18 in4.6 mm
05:45 PM 48.2°F9.0°C 42.3°F5.7°C 80% Calm Calm 3.1 mph5.0 kmh 30.68 in1038.9 mb 0.00 in0.0 mm 0.00 in0.0 mm 0.18 in4.6 mm
06:00 PM 47.5°F8.6°C 41.6°F5.3°C 80% 2.2 mph NW3.5 kmh NW 3.1 mph5.0 kmh 30.68 in1038.9 mb 0.00 in0.0 mm 0.00 in0.0 mm 0.18 in4.6 mm
06:11 PM 47.5°F8.6°C 41.6°F5.3°C 80% 3.1 mph NW5.0 kmh NW 3.8 mph6.1 kmh 30.24 in1024.0 mb 0.00 in0.0 mm 0.00 in0.0 mm 0.18 in4.6 mm
06:15 PM 46.9°F8.3°C 41.4°F5.2°C 81% 1.6 mph NW2.6 kmh NW 3.8 mph6.1 kmh 30.68 in1038.9 mb 0.00 in0.0 mm 0.00 in0.0 mm 0.18 in4.6 mm
06:30 PM 46.6°F8.1°C 41.1°F5.1°C 81% 0.7 mph NW1.1 kmh NW 3.1 mph5.0 kmh 30.68 in1038.9 mb 0.00 in0.0 mm 0.00 in0.0 mm 0.18 in4.6 mm
06:41 PM 46.4°F8.0°C 40.9°F4.9°C 81% 1.6 mph NW2.6 kmh NW 2.2 mph3.5 kmh 30.24 in1024.0 mb 0.00 in0.0 mm 0.00 in0.0 mm 0.18 in4.6 mm
06:45 PM 46.0°F7.8°C 40.9°F4.9°C 82% 1.6 mph NW2.6 kmh NW 2.2 mph3.5 kmh 30.68 in1038.9 mb 0.00 in0.0 mm 0.00 in0.0 mm 0.18 in4.6 mm
07:00 PM 45.7°F7.6°C 40.5°F4.7°C 82% Calm Calm 1.6 mph2.6 kmh 30.68 in1038.9 mb 0.00 in0.0 mm 0.00 in0.0 mm 0.18 in4.6 mm
07:11 PM 45.7°F7.6°C 40.5°F4.7°C 82% Calm Calm 0.7 mph1.1 kmh 30.23 in1023.7 mb 0.00 in0.0 mm 0.00 in0.0 mm 0.18 in4.6 mm
07:15 PM 45.0°F7.2°C 41.6°F5.3°C 88% 0.7 mph NW1.1 kmh NW 1.6 mph2.6 kmh 30.68 in1038.9 mb 0.00 in0.0 mm 0.00 in0.0 mm 0.18 in4.6 mm
07:30 PM 44.6°F7.0°C 41.6°F5.3°C 89% 0.7 mph NW1.1 kmh NW 2.2 mph3.5 kmh 30.68 in1038.9 mb 0.00 in0.0 mm 0.00 in0.0 mm 0.18 in4.6 mm
07:41 PM 44.6°F7.0°C 41.6°F5.3°C 89% 0.7 mph NW1.1 kmh NW 1.6 mph2.6 kmh 30.24 in1024.0 mb 0.00 in0.0 mm 0.00 in0.0 mm 0.18 in4.6 mm
07:45 PM 44.6°F7.0°C 41.8°F5.4°C 90% 0.7 mph NW1.1 kmh NW 3.1 mph5.0 kmh 30.68 in1038.9 mb 0.00 in0.0 mm 0.00 in0.0 mm 0.18 in4.6 mm
08:00 PM 45.0°F7.2°C 42.2°F5.7°C 90% 2.2 mph SW3.5 kmh SW 4.5 mph7.2 kmh 30.68 in1038.9 mb 0.00 in0.0 mm 0.00 in0.0 mm 0.18 in4.6 mm
08:11 PM 45.1°F7.3°C 42.7°F5.9°C 91% 2.2 mph SW3.5 kmh SW 3.1 mph5.0 kmh 30.24 in1024.0 mb 0.00 in0.0 mm 0.00 in0.0 mm 0.18 in4.6 mm
08:15 PM 45.5°F7.5°C 41.6°F5.3°C 86% 3.8 mph WSW6.1 kmh WSW 4.5 mph7.2 kmh 30.68 in1038.9 mb 0.00 in0.0 mm 0.00 in0.0 mm 0.18 in4.6 mm
08:30 PM 45.7°F7.6°C 41.7°F5.4°C 86% 0.7 mph N1.1 kmh N 6.0 mph9.7 kmh 30.68 in1038.9 mb 0.00 in0.0 mm 0.00 in0.0 mm 0.18 in4.6 mm
08:41 PM 45.9°F7.7°C 41.9°F5.5°C 86% Calm Calm -- 30.24 in1024.0 mb 0.00 in0.0 mm 0.00 in0.0 mm 0.18 in4.6 mm
08:45 PM 46.0°F7.8°C 42.1°F5.6°C 86% Calm Calm 4.5 mph7.2 kmh 30.68 in1038.9 mb 0.00 in0.0 mm 0.00 in0.0 mm 0.18 in4.6 mm
09:00 PM 46.2°F7.9°C 42.3°F5.7°C 86% 2.2 mph WSW3.5 kmh WSW 3.8 mph6.1 kmh 30.69 in1039.3 mb 0.00 in0.0 mm 0.00 in0.0 mm 0.18 in4.6 mm
09:11 PM 46.2°F7.9°C 42.3°F5.7°C 86% 3.1 mph SW5.0 kmh SW 5.4 mph8.7 kmh 30.25 in1024.4 mb 0.00 in0.0 mm 0.00 in0.0 mm 0.18 in4.6 mm
09:15 PM 46.0°F7.8°C 42.1°F5.6°C 86% 0.7 mph W1.1 kmh W 3.8 mph6.1 kmh 30.69 in1039.3 mb 0.00 in0.0 mm 0.00 in0.0 mm 0.18 in4.6 mm
09:30 PM 45.9°F7.7°C 41.9°F5.5°C 86% 3.8 mph NW6.1 kmh NW 4.5 mph7.2 kmh 30.69 in1039.3 mb 0.00 in0.0 mm 0.00 in0.0 mm 0.18 in4.6 mm
09:41 PM 45.7°F7.6°C 41.7°F5.4°C 86% 1.6 mph NW2.6 kmh NW 3.1 mph5.0 kmh 30.25 in1024.4 mb 0.00 in0.0 mm 0.00 in0.0 mm 0.18 in4.6 mm
09:45 PM 45.5°F7.5°C 41.3°F5.2°C 85% 1.6 mph NW2.6 kmh NW 4.5 mph7.2 kmh 30.69 in1039.3 mb 0.00 in0.0 mm 0.00 in0.0 mm 0.18 in4.6 mm
10:00 PM 45.0°F7.2°C 42.2°F5.7°C 90% 3.1 mph W5.0 kmh W 3.8 mph6.1 kmh 30.69 in1039.3 mb 0.00 in0.0 mm 0.00 in0.0 mm 0.18 in4.6 mm
10:11 PM 45.0°F7.2°C 42.2°F5.7°C 90% 1.6 mph W2.6 kmh W 2.2 mph3.5 kmh 30.25 in1024.4 mb 0.00 in0.0 mm 0.00 in0.0 mm 0.18 in4.6 mm
10:15 PM 44.6°F7.0°C 41.8°F5.4°C 90% 2.2 mph W3.5 kmh W 5.4 mph8.7 kmh 30.69 in1039.3 mb 0.00 in0.0 mm 0.00 in0.0 mm 0.18 in4.6 mm
10:30 PM 44.1°F6.7°C 41.3°F5.2°C 90% 1.6 mph NW2.6 kmh NW 4.5 mph7.2 kmh 30.70 in1039.6 mb 0.00 in0.0 mm 0.00 in0.0 mm 0.18 in4.6 mm
10:41 PM 44.1°F6.7°C 41.3°F5.2°C 90% 1.6 mph W2.6 kmh W 2.2 mph3.5 kmh 30.27 in1025.1 mb 0.00 in0.0 mm 0.00 in0.0 mm 0.18 in4.6 mm
10:45 PM 43.9°F6.6°C 41.4°F5.2°C 91% 1.6 mph WNW2.6 kmh WNW 5.4 mph8.7 kmh 30.70 in1039.6 mb 0.00 in0.0 mm 0.00 in0.0 mm 0.18 in4.6 mm
11:00 PM 43.5°F6.4°C 41.1°F5.1°C 91% 2.2 mph WNW3.5 kmh WNW 6.0 mph9.7 kmh 30.70 in1039.6 mb 0.00 in0.0 mm 0.00 in0.0 mm 0.18 in4.6 mm
11:11 PM 43.5°F6.4°C 41.1°F5.1°C 91% 2.2 mph NW3.5 kmh NW 3.1 mph5.0 kmh 30.25 in1024.4 mb 0.00 in0.0 mm 0.00 in0.0 mm 0.18 in4.6 mm
11:15 PM 43.3°F6.3°C 40.9°F4.9°C 91% 2.2 mph NW3.5 kmh NW 4.5 mph7.2 kmh 30.71 in1040.0 mb 0.00 in0.0 mm 0.00 in0.0 mm 0.18 in4.6 mm
11:30 PM 42.8°F6.0°C 40.4°F4.7°C 91% 2.2 mph WNW3.5 kmh WNW 6.0 mph9.7 kmh 30.71 in1040.0 mb 0.00 in0.0 mm 0.00 in0.0 mm 0.18 in4.6 mm
11:41 PM 42.8°F6.0°C 40.4°F4.7°C 91% 0.7 mph W1.1 kmh W 1.6 mph2.6 kmh 30.26 in1024.7 mb 0.00 in0.0 mm 0.00 in0.0 mm 0.18 in4.6 mm
11:45 PM 42.6°F5.9°C 40.2°F4.6°C 91% 3.8 mph WNW6.1 kmh WNW 5.4 mph8.7 kmh 30.71 in1040.0 mb 0.00 in0.0 mm 0.00 in0.0 mm 0.18 in4.6 mm